Time;durP1;ratioP1;P1;durP2;ratioP2;P2;SDS_P1;SDS_P2;PMS_P1;PMS_P2;Temp;Humidity;BMP_temperature;BMP_pressure;BME280_temperature;BME280_humidity;BME280_pressure;Samples;Min_cycle;Max_cycle;Signal;HPM_P1;HPM_P2
2021/07/29 00:01:57;;;;;;;17.17;6.30;;;;;;;;;;4386460;32;20323;-54
2021/07/29 00:04:23;;;;;;;13.40;7.82;;;;;;;;;;4386802;32;20260;-54
2021/07/29 00:06:48;;;;;;;22.50;8.18;;;;;;;;;;4386614;32;20359;-54
2021/07/29 00:09:14;;;;;;;20.60;7.45;;;;;;;;;;4386160;32;20537;-55
2021/07/29 00:11:39;;;;;;;19.08;7.03;;;;;;;;;;4386415;32;20225;-55
2021/07/29 00:14:05;;;;;;;16.83;6.35;;;;;;;;;;4386438;32;20222;-56
2021/07/29 00:16:41;;;;;;;18.00;7.07;;;;;;;;;;4386873;32;20622;-55
2021/07/29 00:19:08;;;;;;;15.75;7.57;;;;;;;;;;4386056;32;20225;-54
2021/07/29 00:21:35;;;;;;;15.23;7.57;;;;;;;;;;4386607;32;20248;-54
2021/07/29 00:24:02;;;;;;;15.77;7.25;;;;;;;;;;4386151;32;20264;-54
2021/07/29 00:26:28;;;;;;;24.67;6.75;;;;;;;;;;4386371;32;20319;-56
2021/07/29 00:28:54;;;;;;;17.70;6.87;;;;;;;;;;4385892;32;20233;-56
2021/07/29 00:31:19;;;;;;;19.92;6.65;;;;;;;;;;4386263;32;20303;-57
2021/07/29 00:33:45;;;;;;;18.52;7.18;;;;;;;;;;4386409;32;20230;-54
2021/07/29 00:36:21;;;;;;;15.93;6.22;;;;;;;;;;4386062;32;20382;-54
2021/07/29 00:38:46;;;;;;;20.70;7.93;;;;;;;;;;4386370;32;20605;-55
2021/07/29 00:41:13;;;;;;;16.00;6.87;;;;;;;;;;4385914;32;20277;-54
2021/07/29 00:43:39;;;;;;;16.55;6.87;;;;;;;;;;4385951;32;20279;-55
2021/07/29 00:46:04;;;;;;;18.40;7.75;;;;;;;;;;4385229;32;20755;-56
2021/07/29 00:48:30;;;;;;;24.30;7.55;;;;;;;;;;4386447;32;20307;-55
2021/07/29 00:50:55;;;;;;;21.08;7.57;;;;;;;;;;4386393;32;20382;-56
2021/07/29 00:53:21;;;;;;;20.27;6.90;;;;;;;;;;4396890;32;20242;-55
2021/07/29 00:55:48;;;;;;;14.60;6.07;;;;;;;;;;4385542;32;20376;-55
2021/07/29 00:58:14;;;;;;;17.80;7.45;;;;;;;;;;4385766;32;20315;-55
2021/07/29 01:00:39;;;;;;;26.05;7.55;;;;;;;;;;4386021;32;20639;-55
2021/07/29 01:03:05;;;;;;;18.40;6.43;;;;;;;;;;4384338;32;20245;-56
2021/07/29 01:05:30;;;;;;;17.75;6.20;;;;;;;;;;4385844;32;20311;-55
2021/07/29 01:07:56;;;;;;;23.35;7.50;;;;;;;;;;4384654;32;20280;-54
2021/07/29 01:10:21;;;;;;;16.73;6.20;;;;;;;;;;4385879;32;20694;-55
2021/07/29 01:12:47;;;;;;;15.90;7.15;;;;;;;;;;4386240;32;20260;-55
2021/07/29 01:15:12;;;;;;;12.73;6.43;;;;;;;;;;4385839;32;20358;-56
2021/07/29 01:17:38;;;;;;;14.68;7.03;;;;;;;;;;4386203;32;20277;-55
2021/07/29 01:20:04;;;;;;;30.90;18.00;;;;;;;;;;4385708;32;20242;-55
2021/07/29 01:22:35;;;;;;;19.75;12.32;;;;;;;;;;4385621;32;20289;-54
2021/07/29 01:25:01;;;;;;;26.10;13.43;;;;;;;;;;4385714;32;20233;-55
2021/07/29 01:27:30;;;;;;;27.05;13.90;;;;;;;;;;4385496;32;20299;-57
2021/07/29 01:30:00;;;;;;;38.17;12.80;;;;;;;;;;4385257;32;20230;-55
2021/07/29 01:32:26;;;;;;;13.65;6.65;;;;;;;;;;4385226;32;20222;-55
2021/07/29 01:34:52;;;;;;;11.60;6.30;;;;;;;;;;4385266;32;20260;-55
2021/07/29 01:37:18;;;;;;;15.93;6.57;;;;;;;;;;4385228;32;20340;-56
2021/07/29 01:39:43;;;;;;;17.33;6.72;;;;;;;;;;4385331;32;20234;-55
2021/07/29 01:42:08;;;;;;;21.62;6.65;;;;;;;;;;4385065;32;20281;-55
2021/07/29 01:44:34;;;;;;;11.40;6.37;;;;;;;;;;4385146;32;20595;-55
2021/07/29 01:46:59;;;;;;;16.40;7.05;;;;;;;;;;4385629;32;20284;-55
2021/07/29 01:49:25;;;;;;;14.25;6.00;;;;;;;;;;4385607;32;20303;-56
2021/07/29 01:51:50;;;;;;;15.32;6.03;;;;;;;;;;4385205;32;20300;-56
2021/07/29 01:54:16;;;;;;;13.50;7.05;;;;;;;;;;4384919;32;20674;-56
2021/07/29 01:56:42;;;;;;;16.35;6.28;;;;;;;;;;4385317;32;20280;-57
2021/07/29 01:59:08;;;;;;;17.08;6.28;;;;;;;;;;4385414;32;20226;-56
2021/07/29 02:01:34;;;;;;;18.67;5.25;;;;;;;;;;4385133;32;20280;-56
2021/07/29 02:03:59;;;;;;;30.35;6.87;;;;;;;;;;4384922;32;20287;-56
2021/07/29 02:06:25;;;;;;;17.23;7.55;;;;;;;;;;4385611;32;20823;-56
2021/07/29 02:08:50;;;;;;;12.75;5.03;;;;;;;;;;4387570;32;20358;-55
2021/07/29 02:11:16;;;;;;;17.45;7.50;;;;;;;;;;4387910;32;20304;-55
2021/07/29 02:13:41;;;;;;;17.27;6.10;;;;;;;;;;4388308;32;20630;-56
2021/07/29 02:16:11;;;;;;;17.55;6.93;;;;;;;;;;4388031;32;20686;-55
2021/07/29 02:18:36;;;;;;;12.75;6.75;;;;;;;;;;4388027;32;20234;-55
2021/07/29 02:21:07;;;;;;;17.85;7.53;;;;;;;;;;4388250;32;20338;-55
2021/07/29 02:23:32;;;;;;;17.85;6.87;;;;;;;;;;4388105;32;20654;-55
2021/07/29 02:25:58;;;;;;;17.30;6.25;;;;;;;;;;4387848;32;20292;-55
2021/07/29 02:28:23;;;;;;;12.98;6.12;;;;;;;;;;4387600;32;20563;-55
2021/07/29 02:30:48;;;;;;;13.82;5.65;;;;;;;;;;4388286;32;20319;-55
2021/07/29 02:33:14;;;;;;;21.87;7.05;;;;;;;;;;4387660;32;20279;-55
2021/07/29 02:35:39;;;;;;;12.02;6.22;;;;;;;;;;4387887;32;20342;-55
2021/07/29 02:38:05;;;;;;;16.08;7.15;;;;;;;;;;4387441;32;20229;-55
2021/07/29 02:40:30;;;;;;;13.75;6.57;;;;;;;;;;4386500;32;20670;-56
2021/07/29 02:42:56;;;;;;;14.52;6.00;;;;;;;;;;4387648;32;20713;-55
2021/07/29 02:45:21;;;;;;;22.45;7.87;;;;;;;;;;4388087;32;20303;-55
2021/07/29 02:47:46;;;;;;;22.25;7.43;;;;;;;;;;4387683;32;20369;-55
2021/07/29 02:50:12;;;;;;;21.75;7.43;;;;;;;;;;4387821;32;20289;-55
2021/07/29 02:52:37;;;;;;;21.65;12.63;;;;;;;;;;4387951;32;20287;-54
2021/07/29 02:55:03;;;;;;;21.58;10.77;;;;;;;;;;4377219;32;20222;-56
2021/07/29 02:57:29;;;;;;;23.70;12.00;;;;;;;;;;4372177;32;20654;-57
2021/07/29 02:59:56;;;;;;;19.90;9.52;;;;;;;;;;4372244;32;20725;-55
2021/07/29 03:02:21;;;;;;;16.92;7.93;;;;;;;;;;4384796;32;20274;-56
2021/07/29 03:04:47;;;;;;;22.08;8.75;;;;;;;;;;4372494;32;20226;-55
2021/07/29 03:07:12;;;;;;;12.73;7.87;;;;;;;;;;4372542;32;20281;-55
2021/07/29 03:09:38;;;;;;;16.92;8.13;;;;;;;;;;4372239;32;20284;-55
2021/07/29 03:12:04;;;;;;;11.27;5.97;;;;;;;;;;4370614;32;20311;-55
2021/07/29 03:14:30;;;;;;;18.67;6.87;;;;;;;;;;4372748;32;20237;-54
2021/07/29 03:16:55;;;;;;;12.52;5.87;;;;;;;;;;4372445;32;20308;-55
2021/07/29 03:19:21;;;;;;;22.90;6.05;;;;;;;;;;4372129;32;20356;-56
2021/07/29 03:21:46;;;;;;;11.48;6.03;;;;;;;;;;4370962;32;20317;-56
2021/07/29 03:24:12;;;;;;;14.13;6.25;;;;;;;;;;4371903;32;20346;-55
2021/07/29 03:26:37;;;;;;;13.65;5.85;;;;;;;;;;4372496;32;20296;-55
2021/07/29 03:29:03;;;;;;;13.65;6.47;;;;;;;;;;4374325;32;20283;-55
2021/07/29 03:31:28;;;;;;;19.40;10.55;;;;;;;;;;4377229;32;20280;-56
2021/07/29 03:33:54;;;;;;;22.20;8.35;;;;;;;;;;4387223;32;20296;-55
2021/07/29 03:36:19;;;;;;;14.77;7.28;;;;;;;;;;4387543;32;20264;-56
2021/07/29 03:38:45;;;;;;;19.60;6.22;;;;;;;;;;4387031;32;20338;-57
2021/07/29 03:41:10;;;;;;;14.68;5.70;;;;;;;;;;4386796;32;20334;-56
2021/07/29 03:43:36;;;;;;;18.58;7.03;;;;;;;;;;4386785;32;20348;-55
2021/07/29 03:46:02;;;;;;;10.85;6.40;;;;;;;;;;4387282;32;20602;-56
2021/07/29 03:48:27;;;;;;;19.83;5.28;;;;;;;;;;4386884;32;20252;-55
2021/07/29 03:50:52;;;;;;;15.63;6.12;;;;;;;;;;4386706;32;20748;-56
2021/07/29 03:53:18;;;;;;;22.23;6.43;;;;;;;;;;4386542;32;20615;-56
2021/07/29 03:55:44;;;;;;;21.05;6.70;;;;;;;;;;4386992;32;20311;-56
2021/07/29 03:58:10;;;;;;;15.10;5.75;;;;;;;;;;4386737;32;20257;-56
2021/07/29 04:00:35;;;;;;;15.82;4.40;;;;;;;;;;4386632;32;20713;-56
2021/07/29 04:03:01;;;;;;;12.07;5.57;;;;;;;;;;4377758;32;20707;-56
2021/07/29 04:05:26;;;;;;;22.25;6.03;;;;;;;;;;4371663;32;20269;-57
2021/07/29 04:07:52;;;;;;;23.25;6.90;;;;;;;;;;4371409;32;20296;-56
2021/07/29 04:10:17;;;;;;;15.85;6.20;;;;;;;;;;4371354;32;20226;-55
2021/07/29 04:12:43;;;;;;;15.52;6.78;;;;;;;;;;4371676;32;20663;-55
2021/07/29 04:15:09;;;;;;;17.27;7.85;;;;;;;;;;4371311;32;20609;-55
2021/07/29 04:17:34;;;;;;;24.70;9.13;;;;;;;;;;4371302;32;20327;-56
2021/07/29 04:20:00;;;;;;;22.52;11.93;;;;;;;;;;4371167;32;20230;-54
2021/07/29 04:22:26;;;;;;;15.90;7.97;;;;;;;;;;4371631;32;20276;-55
2021/07/29 04:24:55;;;;;;;22.25;6.87;;;;;;;;;;4370689;32;20587;-55
2021/07/29 04:27:21;;;;;;;22.98;7.03;;;;;;;;;;4371643;32;20210;-55
2021/07/29 04:29:47;;;;;;;15.10;6.20;;;;;;;;;;4385479;32;20630;-55
2021/07/29 04:32:14;;;;;;;14.02;5.72;;;;;;;;;;4386057;32;20272;-55
2021/07/29 04:34:39;;;;;;;13.75;6.40;;;;;;;;;;4386169;32;20582;-55
2021/07/29 04:37:05;;;;;;;12.75;5.80;;;;;;;;;;4385935;32;20335;-55
2021/07/29 04:39:31;;;;;;;16.58;6.78;;;;;;;;;;4385896;32;20435;-56
2021/07/29 04:41:57;;;;;;;15.35;5.97;;;;;;;;;;4386254;32;20342;-56
2021/07/29 04:44:22;;;;;;;27.50;7.35;;;;;;;;;;4385975;32;20237;-55
2021/07/29 04:46:48;;;;;;;21.87;7.28;;;;;;;;;;4385990;32;20435;-55
2021/07/29 04:49:18;;;;;;;32.85;7.15;;;;;;;;;;4386345;32;20617;-55
2021/07/29 04:51:44;;;;;;;13.70;5.68;;;;;;;;;;4386088;32;20221;-55
2021/07/29 04:54:10;;;;;;;17.52;6.00;;;;;;;;;;4385750;32;20248;-55
2021/07/29 04:56:35;;;;;;;20.40;6.30;;;;;;;;;;4385886;32;20761;-56
2021/07/29 04:59:01;;;;;;;18.83;5.95;;;;;;;;;;4385463;32;20226;-55
2021/07/29 05:01:26;;;;;;;13.50;5.87;;;;;;;;;;4385848;32;20323;-55
2021/07/29 05:03:52;;;;;;;14.50;6.97;;;;;;;;;;4385056;32;20237;-56
2021/07/29 05:06:17;;;;;;;20.95;7.70;;;;;;;;;;4385810;32;20311;-55
2021/07/29 05:08:43;;;;;;;20.35;6.68;;;;;;;;;;4385655;32;20229;-55
2021/07/29 05:11:09;;;;;;;18.67;7.80;;;;;;;;;;4385442;32;20237;-56
2021/07/29 05:13:36;;;;;;;28.95;8.38;;;;;;;;;;4386043;32;20313;-56
2021/07/29 05:16:06;;;;;;;14.07;7.25;;;;;;;;;;4385519;32;20343;-55
2021/07/29 05:18:35;;;;;;;16.73;6.03;;;;;;;;;;4385725;32;20225;-55
2021/07/29 05:21:05;;;;;;;18.23;7.30;;;;;;;;;;4385420;32;20585;-55
2021/07/29 05:23:31;;;;;;;20.52;7.40;;;;;;;;;;4384517;32;20260;-55
2021/07/29 05:25:57;;;;;;;17.67;7.70;;;;;;;;;;4383715;32;20293;-56
2021/07/29 05:28:23;;;;;;;11.95;7.55;;;;;;;;;;4383677;32;20306;-55
2021/07/29 05:30:48;;;;;;;22.77;7.55;;;;;;;;;;4383387;32;20406;-56
2021/07/29 05:33:14;;;;;;;20.15;8.27;;;;;;;;;;4383798;32;20307;-54
2021/07/29 05:35:40;;;;;;;17.23;9.00;;;;;;;;;;4383509;32;20344;-55
2021/07/29 05:38:05;;;;;;;19.33;7.57;;;;;;;;;;4383833;32;20253;-55
2021/07/29 05:40:31;;;;;;;21.75;8.25;;;;;;;;;;4381514;32;20249;-54
2021/07/29 05:42:58;;;;;;;29.67;8.50;;;;;;;;;;4383072;32;20363;-55
2021/07/29 05:45:24;;;;;;;17.67;6.62;;;;;;;;;;4383736;32;20210;-55
2021/07/29 05:47:50;;;;;;;15.48;6.55;;;;;;;;;;4383040;32;20273;-54
2021/07/29 05:50:16;;;;;;;26.17;7.60;;;;;;;;;;4384702;32;20357;-55
2021/07/29 05:52:42;;;;;;;33.55;8.18;;;;;;;;;;4385450;32;20277;-55
2021/07/29 05:55:08;;;;;;;19.50;6.47;;;;;;;;;;4384718;32;20575;-54
2021/07/29 05:57:33;;;;;;;21.12;8.27;;;;;;;;;;4385708;32;20988;-56
2021/07/29 05:59:59;;;;;;;16.52;7.12;;;;;;;;;;4384934;32;20357;-54
2021/07/29 06:02:25;;;;;;;15.35;6.90;;;;;;;;;;4384170;32;20360;-54
2021/07/29 06:04:50;;;;;;;13.85;6.87;;;;;;;;;;4384815;32;20237;-54
2021/07/29 06:07:16;;;;;;;22.60;7.00;;;;;;;;;;4385691;32;20276;-54
2021/07/29 06:09:41;;;;;;;26.50;8.93;;;;;;;;;;4385136;32;20327;-55
2021/07/29 06:12:07;;;;;;;18.42;6.28;;;;;;;;;;4385405;32;20627;-55
2021/07/29 06:14:32;;;;;;;23.92;8.40;;;;;;;;;;4385653;32;20597;-56
2021/07/29 06:16:58;;;;;;;12.20;6.12;;;;;;;;;;4385407;32;20292;-56
2021/07/29 06:19:31;;;;;;;20.45;7.30;;;;;;;;;;4385353;32;20786;-54
2021/07/29 06:21:57;;;;;;;19.62;7.50;;;;;;;;;;4385384;32;20198;-57
2021/07/29 06:24:23;;;;;;;24.35;7.43;;;;;;;;;;4385059;32;20221;-55
2021/07/29 06:26:49;;;;;;;22.23;8.73;;;;;;;;;;4385642;32;20618;-55
2021/07/29 06:29:15;;;;;;;25.05;6.95;;;;;;;;;;4385683;32;20308;-54
2021/07/29 06:31:40;;;;;;;24.42;8.07;;;;;;;;;;4385712;32;20355;-55
2021/07/29 06:34:06;;;;;;;15.55;7.10;;;;;;;;;;4385194;32;20218;-55
2021/07/29 06:36:32;;;;;;;27.00;7.50;;;;;;;;;;4385264;32;20614;-54
2021/07/29 06:38:59;;;;;;;15.13;6.95;;;;;;;;;;4385059;32;20677;-55
2021/07/29 06:41:25;;;;;;;15.32;6.00;;;;;;;;;;4385416;32;20355;-55
2021/07/29 06:43:50;;;;;;;19.60;7.43;;;;;;;;;;4384947;32;20265;-55
2021/07/29 06:46:16;;;;;;;14.30;6.95;;;;;;;;;;4385333;32;20303;-55
2021/07/29 06:48:41;;;;;;;15.85;6.90;;;;;;;;;;4386687;32;20270;-54
2021/07/29 06:51:08;;;;;;;23.90;6.85;;;;;;;;;;4386932;32;20317;-55
2021/07/29 06:53:37;;;;;;;15.00;6.50;;;;;;;;;;4386228;32;20264;-55
2021/07/29 06:56:04;;;;;;;22.23;7.75;;;;;;;;;;4389522;32;20201;-55
2021/07/29 06:58:30;;;;;;;23.05;7.85;;;;;;;;;;4389796;32;20449;-54
2021/07/29 07:00:59;;;;;;;19.20;6.60;;;;;;;;;;4389786;32;20281;-56
2021/07/29 07:03:26;;;;;;;12.77;6.75;;;;;;;;;;4379903;32;20321;-55
2021/07/29 07:05:51;;;;;;;14.60;6.97;;;;;;;;;;4374797;32;20645;-56
2021/07/29 07:08:17;;;;;;;21.50;7.75;;;;;;;;;;4375223;32;20217;-55
2021/07/29 07:10:43;;;;;;;18.37;6.70;;;;;;;;;;4374429;32;20210;-55
2021/07/29 07:13:08;;;;;;;25.00;7.20;;;;;;;;;;4375248;32;20260;-55
2021/07/29 07:15:34;;;;;;;15.70;7.35;;;;;;;;;;4389819;32;20288;-55
2021/07/29 07:18:00;;;;;;;28.70;7.10;;;;;;;;;;4389209;32;20295;-55
2021/07/29 07:20:25;;;;;;;20.83;7.68;;;;;;;;;;4389249;32;20338;-56
2021/07/29 07:22:52;;;;;;;17.98;7.70;;;;;;;;;;4388471;32;20265;-55
2021/07/29 07:25:18;;;;;;;22.45;8.02;;;;;;;;;;4387836;32;20256;-55
2021/07/29 07:27:43;;;;;;;15.30;8.00;;;;;;;;;;4389439;32;20343;-56
2021/07/29 07:30:09;;;;;;;18.48;7.37;;;;;;;;;;4387865;32;20313;-55
2021/07/29 07:32:35;;;;;;;21.58;7.62;;;;;;;;;;4389299;32;20311;-55
2021/07/29 07:35:04;;;;;;;14.52;6.97;;;;;;;;;;4387748;32;20330;-54
2021/07/29 07:37:30;;;;;;;23.70;8.90;;;;;;;;;;4389385;32;20233;-55
2021/07/29 07:39:56;;;;;;;19.10;7.87;;;;;;;;;;4389119;32;20298;-55
2021/07/29 07:42:21;;;;;;;20.05;7.80;;;;;;;;;;4389121;32;20269;-55
2021/07/29 07:44:47;;;;;;;19.05;7.18;;;;;;;;;;4388791;32;20244;-55
2021/07/29 07:47:12;;;;;;;17.90;7.28;;;;;;;;;;4388907;32;20269;-54
2021/07/29 07:49:40;;;;;;;17.60;8.07;;;;;;;;;;4389281;32;20498;-55
2021/07/29 07:52:09;;;;;;;15.30;7.30;;;;;;;;;;4388991;32;20234;-55
2021/07/29 07:54:35;;;;;;;11.07;6.62;;;;;;;;;;4389078;32;20430;-55
2021/07/29 07:57:03;;;;;;;19.83;8.50;;;;;;;;;;4387764;32;20312;-56
2021/07/29 07:59:28;;;;;;;21.00;8.20;;;;;;;;;;4388960;32;20218;-55
2021/07/29 08:01:53;;;;;;;18.90;7.47;;;;;;;;;;4388760;32;20253;-55
2021/07/29 08:04:19;;;;;;;15.73;6.80;;;;;;;;;;4388132;32;20650;-55
2021/07/29 08:06:44;;;;;;;16.67;7.87;;;;;;;;;;4388351;32;20296;-55
2021/07/29 08:09:10;;;;;;;12.32;7.53;;;;;;;;;;4388667;32;20287;-56
2021/07/29 08:11:35;;;;;;;23.50;8.30;;;;;;;;;;4388314;32;20287;-55
2021/07/29 08:14:01;;;;;;;17.45;7.00;;;;;;;;;;4388806;32;20264;-55
2021/07/29 08:16:26;;;;;;;19.12;6.87;;;;;;;;;;4388714;32;20264;-55
2021/07/29 08:18:53;;;;;;;17.25;7.43;;;;;;;;;;4388547;32;20646;-55
2021/07/29 08:21:19;;;;;;;10.90;5.78;;;;;;;;;;4388611;32;20249;-55
2021/07/29 08:23:44;;;;;;;19.70;7.00;;;;;;;;;;4388248;32;20663;-55
2021/07/29 08:26:11;;;;;;;15.77;7.55;;;;;;;;;;4388503;32;20300;-54
2021/07/29 08:28:40;;;;;;;20.80;7.35;;;;;;;;;;4388315;32;20230;-55
2021/07/29 08:31:08;;;;;;;19.77;6.65;;;;;;;;;;4388186;32;20798;-55
2021/07/29 08:33:34;;;;;;;17.17;6.75;;;;;;;;;;4388522;32;20667;-56
2021/07/29 08:35:59;;;;;;;15.77;5.70;;;;;;;;;;4388315;32;20323;-55
2021/07/29 08:38:24;;;;;;;29.83;7.78;;;;;;;;;;4388241;32;20296;-55
2021/07/29 08:40:54;;;;;;;17.80;5.75;;;;;;;;;;4387151;32;20299;-55
2021/07/29 08:43:21;;;;;;;20.42;6.57;;;;;;;;;;4379652;32;20640;-55
2021/07/29 08:45:50;;;;;;;15.13;6.72;;;;;;;;;;4386850;32;20286;-55
2021/07/29 08:48:25;;;;;;;26.75;7.78;;;;;;;;;;4387932;32;20207;-55
2021/07/29 08:50:51;;;;;;;15.85;5.85;;;;;;;;;;4387262;32;20221;-56
2021/07/29 08:53:17;;;;;;;22.05;8.13;;;;;;;;;;4387873;32;20222;-55
2021/07/29 08:55:42;;;;;;;19.83;6.62;;;;;;;;;;4387994;32;20678;-56
2021/07/29 08:58:08;;;;;;;16.17;7.15;;;;;;;;;;4388115;32;20250;-56
2021/07/29 09:00:33;;;;;;;18.05;6.65;;;;;;;;;;4388466;32;20299;-56
2021/07/29 09:03:18;;;;;;;14.80;7.00;;;;;;;;;;4387451;32;20288;-55
2021/07/29 09:05:58;;;;;;;13.02;6.43;;;;;;;;;;4388068;32;20265;-56
2021/07/29 09:08:24;;;;;;;26.00;7.87;;;;;;;;;;4387980;32;20244;-54
2021/07/29 09:10:49;;;;;;;15.02;6.53;;;;;;;;;;4387728;32;20214;-55
2021/07/29 09:13:16;;;;;;;24.35;6.55;;;;;;;;;;4388041;32;20209;-55
2021/07/29 09:15:46;;;;;;;17.85;7.25;;;;;;;;;;4388160;32;20247;-56
2021/07/29 09:18:18;;;;;;;16.55;6.57;;;;;;;;;;4388268;32;20264;-56
2021/07/29 09:20:44;;;;;;;21.27;7.40;;;;;;;;;;4388004;32;20202;-56
2021/07/29 09:23:17;;;;;;;19.75;6.18;;;;;;;;;;4387375;32;20241;-55
2021/07/29 09:25:43;;;;;;;18.10;7.18;;;;;;;;;;4387823;32;20205;-56
2021/07/29 09:28:10;;;;;;;12.37;6.87;;;;;;;;;;4387998;32;20206;-56
2021/07/29 09:30:36;;;;;;;15.23;7.50;;;;;;;;;;4387963;32;20629;-56
2021/07/29 09:33:12;;;;;;;16.05;6.15;;;;;;;;;;4373499;32;20316;-55
2021/07/29 09:35:51;;;;;;;15.77;6.62;;;;;;;;;;4372822;32;20331;-57
2021/07/29 09:38:25;;;;;;;18.20;6.82;;;;;;;;;;4372565;32;20206;-56
2021/07/29 09:41:05;;;;;;;14.57;6.12;;;;;;;;;;4383127;32;20646;-56
2021/07/29 09:43:35;;;;;;;24.52;7.53;;;;;;;;;;4387721;32;20266;-55
2021/07/29 09:46:24;;;;;;;17.20;6.43;;;;;;;;;;4388150;32;20205;-55
2021/07/29 09:48:50;;;;;;;13.43;5.43;;;;;;;;;;4387647;32;20759;-56
2021/07/29 09:51:16;;;;;;;19.87;6.05;;;;;;;;;;4386792;32;20277;-56
2021/07/29 09:53:44;;;;;;;19.05;6.25;;;;;;;;;;4387187;32;20233;-55
2021/07/29 09:56:11;;;;;;;14.40;7.22;;;;;;;;;;4387509;32;20276;-56
2021/07/29 09:58:39;;;;;;;16.23;6.50;;;;;;;;;;4387541;32;20226;-55
2021/07/29 10:01:06;;;;;;;19.95;7.20;;;;;;;;;;4387923;32;20418;-56
2021/07/29 10:03:34;;;;;;;19.83;6.45;;;;;;;;;;4386921;32;20209;-55
2021/07/29 10:06:01;;;;;;;16.75;5.25;;;;;;;;;;4387811;32;20235;-55
2021/07/29 10:08:32;;;;;;;13.50;5.68;;;;;;;;;;4384021;32;20241;-57
2021/07/29 10:11:00;;;;;;;18.10;5.20;;;;;;;;;;4385508;32;20230;-56
2021/07/29 10:13:36;;;;;;;17.48;6.70;;;;;;;;;;4385193;32;20347;-55
2021/07/29 10:16:01;;;;;;;19.08;6.15;;;;;;;;;;4385274;32;20561;-56
2021/07/29 10:18:55;;;;;;;18.27;5.87;;;;;;;;;;4376005;32;20222;-55
2021/07/29 10:21:22;;;;;;;18.02;5.35;;;;;;;;;;4370022;32;20272;-55
2021/07/29 10:23:57;;;;;;;12.98;4.93;;;;;;;;;;4383718;32;20256;-54
2021/07/29 10:26:23;;;;;;;11.60;6.00;;;;;;;;;;4385219;32;20515;-56
2021/07/29 10:28:49;;;;;;;16.17;5.82;;;;;;;;;;4386762;32;20249;-56
2021/07/29 10:31:17;;;;;;;19.52;5.95;;;;;;;;;;4385181;32;20722;-56
2021/07/29 10:33:43;;;;;;;17.35;5.32;;;;;;;;;;4373062;32;20344;-55
2021/07/29 10:36:45;;;;;;;10.07;4.72;;;;;;;;;;4372538;32;20302;-56
2021/07/29 10:39:11;;;;;;;16.90;6.85;;;;;;;;;;4375201;32;20276;-56
2021/07/29 10:41:44;;;;;;;25.37;6.37;;;;;;;;;;4383115;32;20206;-56
2021/07/29 10:44:34;;;;;;;16.40;5.35;;;;;;;;;;4390303;32;20535;-56
2021/07/29 10:47:01;;;;;;;14.30;4.70;;;;;;;;;;4389493;32;20348;-56
2021/07/29 10:49:45;;;;;;;18.17;5.43;;;;;;;;;;4389691;32;20214;-56
2021/07/29 10:52:14;;;;;;;12.50;6.00;;;;;;;;;;4389318;32;20276;-56
2021/07/29 10:54:41;;;;;;;18.35;6.12;;;;;;;;;;4389861;32;20614;-57
2021/07/29 10:57:09;;;;;;;13.82;5.22;;;;;;;;;;4389919;32;20287;-55
2021/07/29 10:59:35;;;;;;;16.42;4.50;;;;;;;;;;4390037;32;20248;-56
2021/07/29 11:02:04;;;;;;;17.60;5.82;;;;;;;;;;4390162;32;20555;-56
2021/07/29 11:04:30;;;;;;;17.58;5.70;;;;;;;;;;4388779;32;20291;-56
2021/07/29 11:07:02;;;;;;;15.98;5.70;;;;;;;;;;4389385;32;20272;-55
2021/07/29 11:09:32;;;;;;;20.48;5.10;;;;;;;;;;4389393;32;20267;-55
2021/07/29 11:11:59;;;;;;;14.05;6.00;;;;;;;;;;4389433;32;20288;-55
2021/07/29 11:14:33;;;;;;;18.52;6.05;;;;;;;;;;4389733;32;20205;-55
2021/07/29 11:17:01;;;;;;;22.33;5.62;;;;;;;;;;4373795;32;20222;-55
2021/07/29 11:19:27;;;;;;;23.65;5.68;;;;;;;;;;4373534;32;20257;-55
2021/07/29 11:22:03;;;;;;;13.65;4.93;;;;;;;;;;4374302;32;20748;-57
2021/07/29 11:24:30;;;;;;;21.45;5.15;;;;;;;;;;4374589;32;20701;-54
2021/07/29 11:26:56;;;;;;;21.35;5.07;;;;;;;;;;4374311;32;20319;-55
2021/07/29 11:29:21;;;;;;;21.58;5.87;;;;;;;;;;4374742;32;20750;-57
2021/07/29 11:31:52;;;;;;;20.62;6.20;;;;;;;;;;4381718;32;20307;-56
2021/07/29 11:34:17;;;;;;;17.23;5.85;;;;;;;;;;4390262;32;20252;-55
2021/07/29 11:36:52;;;;;;;17.58;5.40;;;;;;;;;;4388636;32;20301;-56
2021/07/29 11:39:17;;;;;;;20.12;6.22;;;;;;;;;;4389534;32;20280;-55
2021/07/29 11:41:53;;;;;;;14.25;5.68;;;;;;;;;;4389453;32;20288;-55
2021/07/29 11:44:20;;;;;;;22.42;5.70;;;;;;;;;;4388607;32;20259;-56
2021/07/29 11:46:52;;;;;;;19.85;6.07;;;;;;;;;;4389455;32;20346;-56
2021/07/29 11:49:18;;;;;;;14.10;5.47;;;;;;;;;;4388209;32;20280;-55
2021/07/29 11:52:10;;;;;;;11.20;4.95;;;;;;;;;;4387930;32;20313;-55
2021/07/29 11:54:37;;;;;;;19.35;5.25;;;;;;;;;;4389121;32;20231;-56
2021/07/29 11:57:04;;;;;;;23.65;5.57;;;;;;;;;;4388062;32;20256;-57
2021/07/29 11:59:37;;;;;;;18.15;4.87;;;;;;;;;;4387807;32;20238;-56
2021/07/29 12:02:05;;;;;;;20.30;5.82;;;;;;;;;;4389193;32;20224;-56
2021/07/29 12:04:48;;;;;;;18.95;5.35;;;;;;;;;;4388774;32;20263;-55
2021/07/29 12:07:15;;;;;;;17.33;5.70;;;;;;;;;;4388968;32;20236;-56
2021/07/29 12:09:43;;;;;;;14.32;4.95;;;;;;;;;;4389172;32;20222;-55
2021/07/29 12:12:10;;;;;;;20.55;5.72;;;;;;;;;;4389154;32;20252;-56
2021/07/29 12:14:36;;;;;;;19.42;6.75;;;;;;;;;;4388633;32;20255;-55
2021/07/29 12:17:02;;;;;;;19.48;5.80;;;;;;;;;;4387755;32;20749;-56
2021/07/29 12:19:27;;;;;;;13.57;5.25;;;;;;;;;;4387409;32;20658;-56
2021/07/29 12:21:54;;;;;;;9.52;4.95;;;;;;;;;;4389096;32;20322;-56
2021/07/29 12:24:20;;;;;;;16.23;6.15;;;;;;;;;;4389032;32;20258;-56
2021/07/29 12:27:08;;;;;;;18.62;5.43;;;;;;;;;;4381157;32;20694;-57
2021/07/29 12:29:46;;;;;;;20.37;5.93;;;;;;;;;;4361728;32;20766;-56
2021/07/29 12:32:27;;;;;;;14.55;4.68;;;;;;;;;;4369469;32;20246;-56
2021/07/29 12:34:54;;;;;;;16.60;5.82;;;;;;;;;;4378620;32;20269;-55
2021/07/29 12:37:37;;;;;;;14.50;5.78;;;;;;;;;;4386308;32;20399;-56
2021/07/29 12:40:05;;;;;;;14.55;5.28;;;;;;;;;;4380924;32;20697;-55
2021/07/29 12:42:32;;;;;;;18.33;6.03;;;;;;;;;;4379004;32;20721;-56
2021/07/29 12:45:04;;;;;;;12.48;5.43;;;;;;;;;;4385858;32;20240;-56
2021/07/29 12:47:29;;;;;;;24.70;6.20;;;;;;;;;;4369456;32;20300;-56
2021/07/29 12:49:55;;;;;;;17.40;5.75;;;;;;;;;;4375712;32;20843;-55
2021/07/29 12:52:22;;;;;;;27.77;5.20;;;;;;;;;;4385221;32;20374;-56
2021/07/29 12:54:59;;;;;;;17.40;6.32;;;;;;;;;;4384438;32;20256;-56
2021/07/29 12:57:25;;;;;;;20.90;6.65;;;;;;;;;;4383471;32;20792;-56
2021/07/29 12:59:51;;;;;;;24.45;5.57;;;;;;;;;;4382117;32;20233;-56
2021/07/29 13:02:16;;;;;;;16.60;5.85;;;;;;;;;;4376863;32;20917;-56
2021/07/29 13:04:42;;;;;;;23.80;5.03;;;;;;;;;;4373573;32;20336;-56
2021/07/29 13:07:07;;;;;;;20.15;6.10;;;;;;;;;;4381719;32;20320;-56
2021/07/29 13:09:33;;;;;;;32.40;5.45;;;;;;;;;;4385785;32;20206;-56
2021/07/29 13:11:58;;;;;;;14.40;4.53;;;;;;;;;;4388086;32;20206;-56
2021/07/29 13:14:24;;;;;;;15.20;5.25;;;;;;;;;;4386486;32;20241;-55
2021/07/29 13:16:49;;;;;;;19.73;4.85;;;;;;;;;;4388055;32;20374;-56
2021/07/29 13:19:14;;;;;;;16.75;6.22;;;;;;;;;;4386647;32;20297;-57
2021/07/29 13:21:40;;;;;;;11.00;5.62;;;;;;;;;;4382923;32;20697;-55
2021/07/29 13:24:06;;;;;;;14.20;4.65;;;;;;;;;;4378104;32;20307;-57
2021/07/29 13:26:31;;;;;;;16.52;5.53;;;;;;;;;;4380445;32;20205;-55
2021/07/29 13:28:57;;;;;;;16.50;6.15;;;;;;;;;;4378960;32;20643;-56
2021/07/29 13:31:23;;;;;;;17.50;5.28;;;;;;;;;;4385275;32;20321;-56
2021/07/29 13:33:49;;;;;;;15.40;5.57;;;;;;;;;;4381995;32;20254;-56
2021/07/29 13:36:14;;;;;;;24.17;6.78;;;;;;;;;;4379366;32;20339;-56
2021/07/29 13:38:39;;;;;;;9.23;4.97;;;;;;;;;;4382122;32;20670;-56
2021/07/29 13:41:05;;;;;;;21.02;5.12;;;;;;;;;;4387577;32;20284;-55
2021/07/29 13:43:31;;;;;;;14.57;5.15;;;;;;;;;;4387378;32;20249;-56
2021/07/29 13:45:57;;;;;;;15.90;5.50;;;;;;;;;;4388009;32;20256;-57
2021/07/29 13:48:22;;;;;;;12.25;5.30;;;;;;;;;;4372100;32;20335;-56
2021/07/29 13:50:49;;;;;;;18.25;5.75;;;;;;;;;;4374116;32;20354;-57
2021/07/29 13:53:14;;;;;;;20.77;6.40;;;;;;;;;;4374118;32;20217;-57
2021/07/29 13:55:41;;;;;;;20.25;6.40;;;;;;;;;;4380575;32;20375;-57
2021/07/29 13:58:07;;;;;;;24.00;6.40;;;;;;;;;;4378385;32;20300;-57
2021/07/29 14:00:33;;;;;;;15.57;5.68;;;;;;;;;;4385508;32;20359;-57
2021/07/29 14:02:58;;;;;;;12.15;5.75;;;;;;;;;;4387891;32;20265;-56
2021/07/29 14:05:24;;;;;;;24.63;6.57;;;;;;;;;;4391270;32;20288;-61
2021/07/29 14:07:50;;;;;;;20.92;5.10;;;;;;;;;;4389733;32;20322;-56
2021/07/29 14:10:16;;;;;;;29.45;6.18;;;;;;;;;;4392763;32;20307;-56
2021/07/29 14:12:44;;;;;;;21.58;6.10;;;;;;;;;;4392206;32;20602;-57
2021/07/29 14:15:16;;;;;;;14.87;5.30;;;;;;;;;;4391865;32;20605;-62
2021/07/29 14:17:59;;;;;;;14.45;6.95;;;;;;;;;;4392965;32;20872;-58
2021/07/29 14:20:45;;;;;;;22.02;5.47;;;;;;;;;;4391426;32;20339;-58
2021/07/29 14:23:13;;;;;;;16.60;4.65;;;;;;;;;;4404022;27;20304;-85
2021/07/29 14:25:41;;;;;;;10.90;5.28;;;;;;;;;;4377359;32;20728;-83
2021/07/29 14:28:13;;;;;;;21.75;6.43;;;;;;;;;;4389857;32;20338;-83
2021/07/29 14:30:40;;;;;;;17.35;6.65;;;;;;;;;;4389914;32;20298;-83